Time;durP1;ratioP1;P1;durP2;ratioP2;P2;SDS_P1;SDS_P2;PMS_P1;PMS_P2;Temp;Humidity;BMP_temperature;BMP_pressure;BME280_temperature;BME280_humidity;BME280_pressure;Samples;Min_cycle;Max_cycle;Signal;HPM_P1;HPM_P2
2023/01/27 00:01:44;;;;;;;13.45;4.00;;;7.20;97.30;;;;;;5049960;28;20100;-74
2023/01/27 00:04:10;;;;;;;16.05;2.92;;;7.10;96.70;;;;;;5048351;28;20025;-73
2023/01/27 00:06:35;;;;;;;14.68;4.03;;;7.20;97.50;;;;;;5048569;28;20044;-74
2023/01/27 00:09:01;;;;;;;13.73;3.78;;;7.20;97.50;;;;;;5036782;28;20022;-74
2023/01/27 00:14:10;;;;;;;11.27;3.78;;;7.10;97.90;;;;;;5048689;28;20044;-74
2023/01/27 00:16:36;;;;;;;9.82;3.90;;;7.00;97.10;;;;;;5060034;28;20020;-75
2023/01/27 00:19:01;;;;;;;9.48;4.05;;;7.00;96.70;;;;;;5048516;28;20108;-74
2023/01/27 00:26:56;;;;;;;11.98;4.03;;;7.00;96.40;;;;;;5050151;28;20044;-75
2023/01/27 00:29:22;;;;;;;14.55;3.22;;;7.10;96.90;;;;;;5049692;28;20036;-75
2023/01/27 00:34:31;;;;;;;11.43;2.97;;;7.10;97.60;;;;;;5050582;28;20089;-75
2023/01/27 00:36:57;;;;;;;10.23;2.97;;;7.00;97.40;;;;;;5048876;28;20025;-74
2023/01/27 00:39:23;;;;;;;10.75;3.67;;;7.00;97.40;;;;;;5047817;28;20487;-74
2023/01/27 00:41:49;;;;;;;9.07;2.75;;;6.90;97.50;;;;;;5047146;28;20120;-74
2023/01/27 00:44:15;;;;;;;20.33;4.53;;;7.00;97.90;;;;;;5047441;28;20029;-75
2023/01/27 00:46:41;;;;;;;10.13;2.50;;;7.00;97.20;;;;;;5063055;28;20082;-75
2023/01/27 00:49:07;;;;;;;8.80;3.47;;;7.00;97.60;;;;;;5054737;28;21090;-74
2023/01/27 00:51:35;;;;;;;12.80;3.10;;;7.00;97.60;;;;;;5047802;28;20201;-73
2023/01/27 00:54:01;;;;;;;11.00;4.40;;;7.00;97.20;;;;;;5047443;28;20017;-74
2023/01/27 00:56:27;;;;;;;11.57;3.30;;;7.10;96.80;;;;;;5047699;28;20024;-74
2023/01/27 00:58:53;;;;;;;13.38;3.65;;;7.00;96.40;;;;;;5047942;28;20024;-73
2023/01/27 01:01:18;;;;;;;6.45;2.60;;;7.00;96.90;;;;;;5055487;28;20414;-73
2023/01/27 01:03:44;;;;;;;8.95;3.13;;;6.90;96.90;;;;;;5055899;28;20025;-74
2023/01/27 01:06:13;;;;;;;9.25;3.50;;;6.90;96.90;;;;;;5046813;28;20538;-74
2023/01/27 01:08:39;;;;;;;8.88;2.60;;;6.90;97.30;;;;;;5045580;28;20024;-73
2023/01/27 01:11:06;;;;;;;10.40;3.65;;;6.90;97.50;;;;;;5046640;28;20032;-74
2023/01/27 01:13:33;;;;;;;12.43;4.10;;;6.90;98.00;;;;;;5057064;28;20107;-74
2023/01/27 01:16:08;;;;;;;11.80;3.65;;;6.90;97.30;;;;;;5048424;28;20021;-74
2023/01/27 01:18:34;;;;;;;9.90;2.97;;;6.90;97.30;;;;;;5048859;28;20041;-74
2023/01/27 01:21:00;;;;;;;10.30;3.40;;;6.90;97.30;;;;;;5049180;28;20063;-74
2023/01/27 01:23:27;;;;;;;16.73;6.00;;;6.80;97.40;;;;;;5047964;28;20029;-73
2023/01/27 01:25:54;;;;;;;15.25;5.22;;;6.80;97.20;;;;;;5047446;28;20599;-73
2023/01/27 01:28:20;;;;;;;7.63;3.00;;;6.80;96.80;;;;;;5047163;28;20052;-74
2023/01/27 01:30:46;;;;;;;17.70;4.45;;;6.80;97.20;;;;;;5039533;28;20095;-74
2023/01/27 01:33:11;;;;;;;5.10;2.42;;;6.80;97.20;;;;;;5065356;28;20029;-73
2023/01/27 01:35:38;;;;;;;13.48;3.78;;;6.90;98.00;;;;;;5047419;28;20501;-74
2023/01/27 01:38:04;;;;;;;12.40;5.53;;;6.80;97.70;;;;;;5048688;28;20518;-73
2023/01/27 01:40:30;;;;;;;9.57;3.50;;;6.80;97.30;;;;;;5046703;28;20113;-74
2023/01/27 01:42:57;;;;;;;10.07;4.65;;;6.80;97.30;;;;;;5047846;28;20045;-73
2023/01/27 01:45:32;;;;;;;11.20;3.80;;;6.80;97.30;;;;;;5047706;28;20029;-74
2023/01/27 01:48:18;;;;;;;10.82;3.65;;;6.70;97.00;;;;;;5046308;28;20067;-75
2023/01/27 01:50:58;;;;;;;17.27;6.63;;;6.70;97.20;;;;;;5056686;28;20083;-75
2023/01/27 01:53:29;;;;;;;13.73;5.10;;;6.70;96.50;;;;;;5028763;28;20033;-74
2023/01/27 01:55:59;;;;;;;10.15;3.95;;;6.70;96.30;;;;;;5043369;28;20025;-74
2023/01/27 01:58:26;;;;;;;9.48;4.63;;;6.80;97.30;;;;;;5048129;28;20025;-74
2023/01/27 02:00:53;;;;;;;14.55;4.45;;;6.80;97.30;;;;;;5047196;28;20020;-74
2023/01/27 02:03:19;;;;;;;22.10;7.47;;;6.80;97.50;;;;;;5056116;28;20021;-74
2023/01/27 02:05:45;;;;;;;10.90;5.32;;;6.70;97.20;;;;;;5056994;28;20386;-75
2023/01/27 02:08:18;;;;;;;13.85;6.05;;;6.80;97.00;;;;;;5048673;28;20017;-74
2023/01/27 02:10:45;;;;;;;13.85;5.53;;;6.70;97.10;;;;;;5055167;28;20045;-74
2023/01/27 02:13:10;;;;;;;12.63;5.32;;;6.70;96.70;;;;;;5046504;28;20482;-74
2023/01/27 02:15:37;;;;;;;11.25;5.72;;;6.70;96.80;;;;;;5047798;28;20114;-74
2023/01/27 02:18:03;;;;;;;19.30;8.38;;;6.70;97.20;;;;;;5048508;28;20022;-73
2023/01/27 02:20:44;;;;;;;21.85;8.93;;;6.70;97.10;;;;;;5045997;28;20035;-74
2023/01/27 02:23:31;;;;;;;16.13;5.65;;;6.70;96.60;;;;;;5038520;28;20086;-74
2023/01/27 02:26:10;;;;;;;12.80;5.47;;;6.70;96.80;;;;;;5047827;28;20510;-74
2023/01/27 02:28:36;;;;;;;12.35;6.55;;;6.80;96.60;;;;;;5046116;28;20028;-74
2023/01/27 02:31:01;;;;;;;12.07;4.47;;;6.80;96.30;;;;;;5047924;28;20071;-74
2023/01/27 02:33:27;;;;;;;7.70;3.45;;;6.80;96.70;;;;;;5052567;28;20028;-74
2023/01/27 02:36:07;;;;;;;16.52;5.88;;;6.80;97.00;;;;;;5064732;28;20048;-74
2023/01/27 02:38:42;;;;;;;17.20;8.18;;;6.80;97.30;;;;;;5048576;28;20874;-74
2023/01/27 02:41:29;;;;;;;12.00;5.50;;;6.80;97.10;;;;;;5048011;28;20017;-75
2023/01/27 02:43:55;;;;;;;16.33;10.05;;;6.80;97.50;;;;;;5037465;28;20028;-74
2023/01/27 02:46:21;;;;;;;8.13;2.80;;;6.70;97.30;;;;;;5060557;28;20025;-74
2023/01/27 02:48:46;;;;;;;17.77;8.32;;;6.70;97.90;;;;;;5051611;28;20039;-74
2023/01/27 02:51:16;;;;;;;20.38;10.68;;;6.70;97.70;;;;;;5051761;28;20040;-74
2023/01/27 02:53:41;;;;;;;15.45;6.55;;;6.70;97.90;;;;;;5051944;28;20025;-74
2023/01/27 02:56:07;;;;;;;16.48;8.65;;;6.70;97.90;;;;;;5051306;28;20529;-74
2023/01/27 02:58:33;;;;;;;22.33;11.45;;;6.70;98.20;;;;;;5049989;28;20483;-74
2023/01/27 03:00:58;;;;;;;15.00;7.32;;;6.80;98.10;;;;;;5051853;28;20496;-74
2023/01/27 03:03:24;;;;;;;22.95;13.32;;;6.70;98.10;;;;;;5059351;28;20028;-74
2023/01/27 03:05:50;;;;;;;32.90;14.73;;;6.70;98.00;;;;;;5051556;28;20031;-73
2023/01/27 03:08:18;;;;;;;14.75;7.60;;;6.70;97.90;;;;;;5049396;28;20036;-74
2023/01/27 03:10:48;;;;;;;21.33;10.98;;;6.70;97.90;;;;;;5051397;28;20072;-74
2023/01/27 03:13:14;;;;;;;25.67;14.95;;;6.60;97.70;;;;;;5050167;28;20033;-74
2023/01/27 03:18:24;;;;;;;15.68;9.30;;;6.60;97.00;;;;;;5050402;28;20403;-74
2023/01/27 03:20:49;;;;;;;23.77;11.90;;;6.60;97.30;;;;;;5051082;28;20068;-74
2023/01/27 03:23:18;;;;;;;15.90;9.23;;;6.50;97.60;;;;;;5050847;28;20269;-74
2023/01/27 03:25:49;;;;;;;13.60;8.02;;;6.50;98.10;;;;;;5050354;28;20048;-74
2023/01/27 03:28:14;;;;;;;23.75;14.90;;;6.40;97.60;;;;;;5050072;28;20461;-73
2023/01/27 03:30:40;;;;;;;20.90;11.88;;;6.40;97.70;;;;;;5049722;28;20059;-73
2023/01/27 03:33:06;;;;;;;13.75;7.38;;;6.50;98.00;;;;;;5050645;28;20013;-73
2023/01/27 03:35:47;;;;;;;22.05;12.18;;;6.50;98.20;;;;;;5045607;28;20040;-73
2023/01/27 03:46:31;;;;;;;13.05;6.75;;;6.50;98.00;;;;;;5056251;28;20091;-74
2023/01/27 03:48:58;;;;;;;15.30;6.22;;;6.60;98.40;;;;;;5048924;28;20047;-74
2023/01/27 03:51:25;;;;;;;9.48;5.00;;;6.40;97.20;;;;;;5050650;28;20032;-74
2023/01/27 03:53:51;;;;;;;13.70;7.00;;;6.50;98.20;;;;;;5053320;28;20031;-74
2023/01/27 03:56:19;;;;;;;10.88;6.07;;;6.50;98.40;;;;;;5050377;28;20104;-74
2023/01/27 03:58:46;;;;;;;13.10;8.45;;;6.50;98.40;;;;;;5050553;28;20047;-74
2023/01/27 04:01:18;;;;;;;18.15;11.98;;;6.50;97.90;;;;;;5049284;28;20071;-74
2023/01/27 04:09:24;;;;;;;11.70;7.25;;;6.60;96.00;;;;;;5048707;28;20048;-74
2023/01/27 04:11:53;;;;;;;13.68;8.20;;;6.70;97.00;;;;;;5049398;28;20037;-72
2023/01/27 04:14:23;;;;;;;16.75;10.68;;;6.60;96.50;;;;;;5050424;28;20112;-74
2023/01/27 04:16:50;;;;;;;15.63;8.88;;;6.60;96.30;;;;;;5039269;28;20032;-74
2023/01/27 04:19:16;;;;;;;10.80;6.35;;;6.60;96.10;;;;;;5050138;28;20033;-72
2023/01/27 04:21:42;;;;;;;13.48;9.27;;;6.60;96.80;;;;;;5049949;28;20095;-73
2023/01/27 04:24:16;;;;;;;10.60;7.40;;;6.60;96.60;;;;;;5061901;28;20025;-73
2023/01/27 04:26:44;;;;;;;10.77;6.55;;;6.60;96.30;;;;;;5055075;28;20659;-74
2023/01/27 04:29:12;;;;;;;10.13;6.05;;;6.60;96.70;;;;;;5070235;28;20032;-73
2023/01/27 04:31:39;;;;;;;8.52;4.80;;;6.60;97.40;;;;;;5049500;28;20039;-73
2023/01/27 04:34:05;;;;;;;13.45;7.15;;;6.60;97.30;;;;;;5056706;28;20111;-74
2023/01/27 04:36:30;;;;;;;11.55;6.38;;;6.50;97.00;;;;;;5052504;28;20486;-74
2023/01/27 04:38:56;;;;;;;12.35;9.13;;;6.50;96.60;;;;;;5049976;28;20021;-73
2023/01/27 04:41:21;;;;;;;10.48;6.68;;;6.60;97.30;;;;;;5049163;28;20487;-74
2023/01/27 04:43:47;;;;;;;13.90;7.35;;;6.60;97.20;;;;;;5056701;28;20491;-73
2023/01/27 04:46:13;;;;;;;11.18;6.43;;;6.60;96.80;;;;;;5052368;28;20025;-72
2023/01/27 04:48:38;;;;;;;8.38;4.78;;;6.60;96.80;;;;;;5051959;28;20033;-74
2023/01/27 04:51:04;;;;;;;12.43;7.40;;;6.60;97.10;;;;;;5048255;28;20029;-74
2023/01/27 04:53:30;;;;;;;7.45;4.47;;;6.60;96.30;;;;;;5048493;28;20025;-73
2023/01/27 04:56:02;;;;;;;10.77;7.55;;;6.70;96.70;;;;;;5047514;28;20017;-74
2023/01/27 04:58:28;;;;;;;8.90;5.93;;;6.60;96.20;;;;;;5048473;28;20510;-74
2023/01/27 05:00:53;;;;;;;7.85;4.18;;;6.70;96.80;;;;;;5049079;28;20028;-74
2023/01/27 05:03:19;;;;;;;7.80;5.18;;;6.70;96.50;;;;;;5049071;28;20033;-73
2023/01/27 05:05:44;;;;;;;7.15;4.43;;;6.70;96.40;;;;;;5055674;28;20039;-73
2023/01/27 05:08:10;;;;;;;10.65;6.75;;;6.70;96.80;;;;;;5044684;28;20024;-73
2023/01/27 05:10:36;;;;;;;8.68;5.40;;;6.80;96.70;;;;;;5033458;28;20037;-75
2023/01/27 05:13:01;;;;;;;9.18;3.72;;;6.70;96.90;;;;;;5045925;28;20033;-74
2023/01/27 05:15:28;;;;;;;8.25;5.22;;;6.70;97.10;;;;;;5048235;28;20032;-75
2023/01/27 05:17:54;;;;;;;8.13;5.10;;;6.70;96.70;;;;;;5046821;28;20144;-74
2023/01/27 05:20:20;;;;;;;11.07;6.82;;;6.80;96.90;;;;;;5049173;28;20024;-73
2023/01/27 05:22:46;;;;;;;12.45;7.05;;;6.80;96.30;;;;;;5049770;28;20024;-74
2023/01/27 05:25:12;;;;;;;10.50;6.22;;;6.80;95.80;;;;;;5048898;28;20049;-75
2023/01/27 05:27:38;;;;;;;10.68;6.32;;;6.80;95.40;;;;;;5049131;28;20021;-75
2023/01/27 05:30:04;;;;;;;9.07;5.22;;;6.80;94.70;;;;;;5052804;28;20044;-74
2023/01/27 05:32:29;;;;;;;8.77;5.50;;;6.80;94.60;;;;;;5046305;28;20090;-74
2023/01/27 05:34:55;;;;;;;9.45;6.07;;;6.80;94.30;;;;;;5049752;28;20143;-73
2023/01/27 05:37:21;;;;;;;10.13;5.90;;;6.80;94.80;;;;;;5049044;28;20032;-74
2023/01/27 05:39:46;;;;;;;7.93;5.53;;;6.80;94.30;;;;;;5048183;28;20016;-74
2023/01/27 05:42:12;;;;;;;9.00;5.65;;;6.90;94.10;;;;;;5049633;28;20028;-74
2023/01/27 05:44:38;;;;;;;9.35;5.65;;;6.90;94.00;;;;;;5047157;28;20025;-74
2023/01/27 05:47:05;;;;;;;9.70;5.60;;;6.90;93.70;;;;;;5037103;28;20625;-74
2023/01/27 05:49:30;;;;;;;7.85;5.38;;;6.90;94.40;;;;;;5049976;28;20052;-74
2023/01/27 05:51:56;;;;;;;9.05;5.47;;;6.90;94.00;;;;;;5060581;28;20060;-73
2023/01/27 05:54:22;;;;;;;5.93;3.72;;;6.90;93.90;;;;;;5048591;28;20024;-73
2023/01/27 05:56:47;;;;;;;6.90;3.80;;;6.90;94.20;;;;;;5047077;28;20025;-73
2023/01/27 05:59:13;;;;;;;8.93;5.72;;;6.90;95.20;;;;;;5048045;28;20093;-73
2023/01/27 06:01:39;;;;;;;8.40;4.68;;;6.90;95.10;;;;;;5048833;28;20025;-73
2023/01/27 06:04:05;;;;;;;9.00;4.60;;;6.90;94.70;;;;;;5046571;28;20021;-74
2023/01/27 06:06:32;;;;;;;10.00;4.85;;;6.90;94.50;;;;;;5047050;28;20033;-72
2023/01/27 06:08:58;;;;;;;7.72;4.05;;;6.90;94.70;;;;;;5047578;28;20497;-74
2023/01/27 06:11:24;;;;;;;7.90;3.95;;;6.90;95.10;;;;;;5043336;28;20043;-73
2023/01/27 06:13:51;;;;;;;9.30;4.35;;;6.90;96.00;;;;;;5047319;28;20179;-74
2023/01/27 06:16:19;;;;;;;11.02;4.20;;;6.90;96.10;;;;;;5047784;28;20028;-74
2023/01/27 06:18:46;;;;;;;6.15;3.78;;;6.90;96.40;;;;;;5043527;28;20541;-73
2023/01/27 06:21:13;;;;;;;9.98;3.58;;;6.80;96.40;;;;;;5046018;28;20092;-74
2023/01/27 06:23:40;;;;;;;9.07;5.18;;;6.80;96.50;;;;;;5061137;28;20024;-73
2023/01/27 06:26:09;;;;;;;13.07;5.68;;;6.80;96.70;;;;;;5050338;28;20045;-74
2023/01/27 06:28:36;;;;;;;6.80;2.30;;;6.90;96.60;;;;;;5049577;28;20033;-73
2023/01/27 06:31:09;;;;;;;9.73;2.47;;;6.90;97.30;;;;;;5048701;28;20068;-74
2023/01/27 06:33:38;;;;;;;9.73;2.22;;;7.00;98.10;;;;;;5047809;28;20043;-73
2023/01/27 06:36:14;;;;;;;6.90;2.00;;;7.10;98.20;;;;;;5049331;28;20017;-74
2023/01/27 06:38:41;;;;;;;5.68;2.25;;;7.20;98.30;;;;;;5046157;28;20063;-74
2023/01/27 06:41:07;;;;;;;9.98;6.95;;;7.20;98.10;;;;;;5047767;28;20482;-73
2023/01/27 06:43:33;;;;;;;9.73;3.83;;;7.10;97.80;;;;;;5050288;28;20024;-74
2023/01/27 06:45:58;;;;;;;7.40;3.67;;;7.10;97.60;;;;;;5049147;28;20051;-72
2023/01/27 06:48:25;;;;;;;7.57;3.85;;;7.10;97.20;;;;;;5048219;28;20082;-74
2023/01/27 06:50:55;;;;;;;9.18;4.32;;;7.10;97.00;;;;;;5048386;28;20041;-74
2023/01/27 06:53:21;;;;;;;6.85;4.45;;;7.10;96.20;;;;;;5029602;28;20061;-75
2023/01/27 06:55:47;;;;;;;10.05;2.63;;;7.10;95.90;;;;;;5054978;28;20029;-74
2023/01/27 06:58:14;;;;;;;9.10;4.32;;;7.10;96.50;;;;;;5049893;28;20025;-75
2023/01/27 07:00:40;;;;;;;6.18;4.00;;;7.10;95.50;;;;;;5049477;28;20111;-74
2023/01/27 07:03:09;;;;;;;8.05;4.03;;;7.00;96.20;;;;;;5050329;28;20025;-75
2023/01/27 07:05:36;;;;;;;8.00;3.58;;;7.00;96.80;;;;;;5049437;28;20033;-73
2023/01/27 07:08:02;;;;;;;6.47;2.40;;;7.00;97.50;;;;;;5050973;28;20413;-73
2023/01/27 07:10:28;;;;;;;7.30;3.20;;;7.00;97.80;;;;;;5050133;28;20119;-75
2023/01/27 07:13:06;;;;;;;7.28;3.40;;;6.90;97.40;;;;;;5049807;28;20032;-74
2023/01/27 07:15:33;;;;;;;7.13;2.97;;;6.90;97.70;;;;;;5050673;28;20031;-74
2023/01/27 07:18:01;;;;;;;9.15;4.35;;;6.90;97.70;;;;;;5050065;28;20394;-74
2023/01/27 07:20:27;;;;;;;7.00;2.78;;;6.80;97.50;;;;;;5050524;28;20105;-74
2023/01/27 07:22:59;;;;;;;7.00;4.03;;;6.70;98.10;;;;;;5050514;28;20040;-75
2023/01/27 07:25:25;;;;;;;8.30;4.40;;;6.70;98.10;;;;;;5050241;28;20041;-74
2023/01/27 07:27:51;;;;;;;9.65;4.18;;;6.70;98.20;;;;;;5048420;28;20449;-75
2023/01/27 07:30:17;;;;;;;9.82;3.13;;;6.60;97.90;;;;;;5049315;28;20048;-74
2023/01/27 07:32:43;;;;;;;7.30;4.05;;;6.70;98.50;;;;;;5046848;28;20131;-75
2023/01/27 07:35:08;;;;;;;11.38;2.92;;;6.60;98.20;;;;;;5057107;28;20850;-73
2023/01/27 07:37:34;;;;;;;6.70;4.50;;;6.50;98.30;;;;;;5050057;28;20039;-73
2023/01/27 07:39:59;;;;;;;8.07;4.25;;;6.40;98.20;;;;;;5050209;28;20109;-73
2023/01/27 07:42:25;;;;;;;6.63;4.65;;;6.40;97.80;;;;;;5051229;28;20100;-74
2023/01/27 07:44:51;;;;;;;9.73;4.05;;;6.40;97.70;;;;;;5038875;28;20033;-74
2023/01/27 07:47:16;;;;;;;7.35;3.03;;;6.30;97.70;;;;;;5042744;28;20079;-73
2023/01/27 07:49:42;;;;;;;8.50;3.55;;;6.30;97.70;;;;;;5050559;28;20063;-73
2023/01/27 07:52:07;;;;;;;7.93;4.82;;;6.30;97.70;;;;;;5050548;28;20017;-75
2023/01/27 07:54:33;;;;;;;5.32;2.72;;;6.30;97.10;;;;;;5049742;28;20039;-73
2023/01/27 07:57:00;;;;;;;8.70;2.53;;;6.30;97.50;;;;;;5048187;28;20029;-74
2023/01/27 07:59:26;;;;;;;6.43;3.72;;;6.40;98.10;;;;;;5045703;28;20064;-73
2023/01/27 08:01:51;;;;;;;6.72;3.28;;;6.30;97.70;;;;;;5050239;28;20040;-74
2023/01/27 08:04:18;;;;;;;3.90;1.80;;;6.20;97.60;;;;;;5050163;28;20059;-75
2023/01/27 08:06:44;;;;;;;7.13;3.47;;;6.30;98.30;;;;;;5044848;28;20032;-74
2023/01/27 08:09:10;;;;;;;6.35;3.10;;;6.30;98.10;;;;;;5049646;28;20376;-74
2023/01/27 08:11:36;;;;;;;6.50;4.13;;;6.30;98.00;;;;;;5047765;28;20029;-75
2023/01/27 08:14:02;;;;;;;5.30;3.13;;;6.40;98.00;;;;;;5054900;28;20021;-74
2023/01/27 08:16:28;;;;;;;6.78;4.10;;;6.40;98.00;;;;;;5049942;28;20442;-74
2023/01/27 08:18:54;;;;;;;5.30;3.25;;;6.40;97.60;;;;;;5048847;28;20056;-74
2023/01/27 08:21:20;;;;;;;6.18;3.47;;;6.40;97.10;;;;;;5048788;28;20029;-74
2023/01/27 08:23:46;;;;;;;6.93;4.03;;;6.40;96.80;;;;;;5044112;28;20038;-74
2023/01/27 08:26:11;;;;;;;4.78;3.00;;;6.50;96.50;;;;;;5048577;28;20056;-74
2023/01/27 08:28:39;;;;;;;5.32;3.38;;;6.50;96.20;;;;;;5049482;28;20013;-74
2023/01/27 08:31:07;;;;;;;7.03;2.45;;;6.50;95.60;;;;;;5048676;28;20116;-73
2023/01/27 08:33:33;;;;;;;5.72;3.03;;;6.60;96.20;;;;;;5049188;28;20430;-74
2023/01/27 08:36:05;;;;;;;5.75;3.75;;;6.50;96.50;;;;;;5048044;28;20025;-74
2023/01/27 08:38:30;;;;;;;5.43;3.10;;;6.50;96.50;;;;;;5049604;28;20039;-74
2023/01/27 08:40:57;;;;;;;6.00;3.25;;;6.50;95.40;;;;;;5049125;28;20025;-74
2023/01/27 08:43:23;;;;;;;6.05;3.00;;;6.60;94.80;;;;;;5047589;28;20025;-73
2023/01/27 08:45:51;;;;;;;5.95;3.35;;;6.60;95.10;;;;;;5044304;28;20028;-73
2023/01/27 08:48:17;;;;;;;5.72;3.70;;;6.60;94.10;;;;;;5047226;28;20021;-74
2023/01/27 08:50:42;;;;;;;7.25;3.95;;;6.60;94.00;;;;;;5048541;28;20063;-74
2023/01/27 08:53:08;;;;;;;5.03;2.90;;;6.60;93.70;;;;;;5044207;28;20112;-74
2023/01/27 08:55:35;;;;;;;5.47;2.97;;;6.60;93.90;;;;;;5049526;28;20101;-74
2023/01/27 08:58:00;;;;;;;7.70;3.42;;;6.60;93.60;;;;;;5031781;28;20028;-74
2023/01/27 09:00:26;;;;;;;5.10;2.83;;;6.50;93.70;;;;;;5048840;28;20017;-74
2023/01/27 09:02:52;;;;;;;6.03;3.42;;;6.50;94.20;;;;;;5062652;28;20025;-74
2023/01/27 09:05:18;;;;;;;4.25;2.35;;;6.50;95.40;;;;;;5049283;28;20597;-75
2023/01/27 09:07:44;;;;;;;4.43;2.47;;;6.50;96.10;;;;;;5047793;28;20024;-75
2023/01/27 09:10:11;;;;;;;4.53;2.45;;;6.60;97.50;;;;;;5045298;28;20043;-75
2023/01/27 09:12:37;;;;;;;5.18;3.03;;;6.50;97.50;;;;;;5047371;28;20052;-75
2023/01/27 09:15:03;;;;;;;5.15;2.53;;;6.50;97.90;;;;;;5048872;28;20049;-75
2023/01/27 09:17:29;;;;;;;3.75;2.08;;;6.50;97.30;;;;;;5048420;28;20052;-74
2023/01/27 09:19:54;;;;;;;6.32;3.22;;;6.50;96.80;;;;;;5047556;28;20132;-74
2023/01/27 09:22:20;;;;;;;5.40;3.38;;;6.60;97.10;;;;;;5047562;28;20835;-75
2023/01/27 09:24:45;;;;;;;5.00;2.08;;;6.50;96.20;;;;;;5047560;28;20040;-74
2023/01/27 09:27:11;;;;;;;7.13;3.30;;;6.50;96.40;;;;;;5047892;28;20067;-75
2023/01/27 09:29:38;;;;;;;6.75;2.63;;;6.60;97.00;;;;;;5046983;28;20039;-74
2023/01/27 09:32:04;;;;;;;6.35;3.03;;;6.50;96.90;;;;;;5048581;28;20044;-74
2023/01/27 09:34:32;;;;;;;6.85;4.63;;;6.60;97.50;;;;;;5048108;28;20581;-74
2023/01/27 09:37:05;;;;;;;5.70;2.88;;;6.50;96.30;;;;;;5048702;28;20537;-74
2023/01/27 09:39:35;;;;;;;8.32;3.25;;;6.50;96.50;;;;;;5048694;28;20024;-75
2023/01/27 09:42:20;;;;;;;5.83;3.53;;;6.50;97.00;;;;;;5048030;28;20110;-75
2023/01/27 09:45:25;;;;;;;5.18;2.95;;;6.40;96.80;;;;;;5048599;28;20278;-75
2023/01/27 09:48:25;;;;;;;7.72;4.05;;;6.40;97.50;;;;;;5063896;28;20044;-75
2023/01/27 09:51:21;;;;;;;7.47;3.65;;;6.50;97.70;;;;;;5048000;28;20558;-75
2023/01/27 09:54:18;;;;;;;6.32;3.67;;;6.50;97.60;;;;;;5048672;28;20664;-75
2023/01/27 09:56:53;;;;;;;7.35;3.97;;;6.50;97.80;;;;;;5047136;28;20102;-75
2023/01/27 09:59:37;;;;;;;6.20;3.85;;;6.50;96.80;;;;;;5048641;28;20475;-74
2023/01/27 10:02:29;;;;;;;6.10;4.00;;;6.60;97.50;;;;;;5047245;28;20195;-75
2023/01/27 10:04:57;;;;;;;10.73;4.93;;;6.60;96.60;;;;;;5046987;28;20032;-75
2023/01/27 10:07:48;;;;;;;4.57;2.33;;;6.60;96.60;;;;;;5049116;28;20029;-76
2023/01/27 10:10:17;;;;;;;8.10;4.10;;;6.60;96.60;;;;;;5036637;28;20037;-74
2023/01/27 10:13:07;;;;;;;6.40;4.03;;;6.70;96.40;;;;;;5048403;28;20115;-75
2023/01/27 10:16:32;;;;;;;7.75;4.18;;;6.60;95.80;;;;;;5049553;28;20111;-76
2023/01/27 10:19:05;;;;;;;7.93;4.03;;;6.60;95.30;;;;;;5016723;28;20033;-75
2023/01/27 10:22:14;;;;;;;7.20;3.92;;;6.60;94.60;;;;;;5029418;28;20017;-75
2023/01/27 10:24:58;;;;;;;7.10;3.35;;;6.70;95.10;;;;;;5041949;28;20498;-75
2023/01/27 10:27:25;;;;;;;6.97;4.15;;;6.70;95.20;;;;;;5047499;28;20017;-74
2023/01/27 10:30:19;;;;;;;6.47;3.60;;;6.70;95.40;;;;;;5047419;28;20056;-74
2023/01/27 10:32:53;;;;;;;5.63;3.17;;;6.70;95.30;;;;;;5044952;28;20024;-74
2023/01/27 10:35:52;;;;;;;6.82;3.85;;;6.80;96.10;;;;;;5051657;28;20052;-74
2023/01/27 10:38:37;;;;;;;5.78;3.58;;;6.70;96.30;;;;;;5046509;28;20097;-75
2023/01/27 10:41:33;;;;;;;8.30;4.57;;;6.70;96.70;;;;;;5046790;28;20660;-75
2023/01/27 10:44:01;;;;;;;7.90;3.60;;;6.70;96.50;;;;;;5045889;28;20475;-75
2023/01/27 10:46:40;;;;;;;6.75;3.28;;;6.80;97.10;;;;;;5048143;28;20549;-76
2023/01/27 10:49:13;;;;;;;8.00;4.47;;;6.80;96.70;;;;;;5047402;28;20075;-75
2023/01/27 10:51:49;;;;;;;7.43;4.55;;;6.80;96.70;;;;;;5047788;28;20021;-74
2023/01/27 10:54:27;;;;;;;6.20;3.78;;;6.80;96.80;;;;;;5047601;28;20053;-74
2023/01/27 10:56:58;;;;;;;5.85;3.28;;;6.80;96.70;;;;;;5047236;28;20060;-74
2023/01/27 10:59:44;;;;;;;7.53;3.55;;;6.80;96.80;;;;;;5047522;28;20070;-74
2023/01/27 11:02:36;;;;;;;6.03;3.58;;;6.90;96.90;;;;;;5047957;28;20033;-75
2023/01/27 11:05:10;;;;;;;6.15;3.30;;;6.90;97.60;;;;;;5048032;28;20079;-75
2023/01/27 11:07:46;;;;;;;9.52;4.35;;;7.00;97.40;;;;;;5048236;28;20390;-74
2023/01/27 11:10:19;;;;;;;6.90;4.55;;;7.00;96.70;;;;;;5048044;28;20119;-74
2023/01/27 11:12:53;;;;;;;6.90;4.35;;;7.00;96.20;;;;;;5050875;28;20048;-75
2023/01/27 11:15:34;;;;;;;5.80;3.08;;;7.00;95.90;;;;;;5050457;28;20021;-74
2023/01/27 11:18:24;;;;;;;7.15;3.25;;;7.10;96.60;;;;;;5050816;28;20025;-75
2023/01/27 11:20:52;;;;;;;8.48;4.88;;;7.20;97.20;;;;;;5050232;28;20032;-73
2023/01/27 11:23:28;;;;;;;6.18;4.40;;;7.30;96.90;;;;;;5050793;28;20032;-75
2023/01/27 11:25:59;;;;;;;7.88;4.22;;;7.30;96.30;;;;;;5051056;28;20049;-74
2023/01/27 11:28:41;;;;;;;7.63;4.30;;;7.30;95.80;;;;;;5050972;28;20128;-75
2023/01/27 11:31:25;;;;;;;7.90;4.85;;;7.30;94.70;;;;;;5048919;28;20112;-75
2023/01/27 11:33:56;;;;;;;6.18;3.55;;;7.30;94.10;;;;;;5052541;28;20712;-76
2023/01/27 11:36:25;;;;;;;6.28;4.15;;;7.30;94.00;;;;;;5049516;28;20025;-74
2023/01/27 11:38:55;;;;;;;7.43;4.18;;;7.40;93.90;;;;;;5050717;28;20484;-75
2023/01/27 11:41:21;;;;;;;7.30;3.67;;;7.40;93.50;;;;;;5054253;28;20527;-75
2023/01/27 11:43:47;;;;;;;6.43;3.83;;;7.40;93.40;;;;;;5069554;28;20055;-74
2023/01/27 11:46:24;;;;;;;6.38;3.88;;;7.40;94.10;;;;;;5050221;28;20056;-76
2023/01/27 11:48:54;;;;;;;6.50;3.33;;;7.40;93.00;;;;;;5049744;28;20176;-74
2023/01/27 11:51:25;;;;;;;6.00;3.80;;;7.40;93.50;;;;;;5052991;28;20122;-74
2023/01/27 11:54:16;;;;;;;7.30;3.30;;;7.40;93.20;;;;;;5049861;28;20013;-75
2023/01/27 11:56:46;;;;;;;7.15;3.60;;;7.50;93.50;;;;;;5038948;28;20025;-75
2023/01/27 11:59:24;;;;;;;5.63;3.45;;;7.50;94.70;;;;;;5048765;28;20432;-73
2023/01/27 12:01:56;;;;;;;5.00;3.10;;;7.50;93.00;;;;;;5050265;28;20519;-74
2023/01/27 12:04:44;;;;;;;6.22;3.17;;;7.50;93.20;;;;;;5049678;28;20021;-75
2023/01/27 12:07:22;;;;;;;6.35;3.78;;;7.60;94.40;;;;;;5062874;28;20066;-74
2023/01/27 12:09:48;;;;;;;5.15;3.03;;;7.60;94.50;;;;;;5049331;28;20036;-74
2023/01/27 12:12:13;;;;;;;5.75;3.85;;;7.60;94.10;;;;;;5049451;28;20028;-74
2023/01/27 12:15:01;;;;;;;5.80;2.65;;;7.60;93.10;;;;;;5051140;28;20099;-74
2023/01/27 12:17:32;;;;;;;5.45;3.30;;;7.60;95.10;;;;;;5046808;28;20029;-74
2023/01/27 12:20:05;;;;;;;5.13;2.83;;;7.80;95.40;;;;;;5048271;28;20032;-74
2023/01/27 12:22:37;;;;;;;8.35;3.60;;;7.80;95.30;;;;;;5049585;28;20096;-74
2023/01/27 12:25:07;;;;;;;6.50;3.63;;;7.80;94.40;;;;;;5049746;28;20055;-74
2023/01/27 12:27:50;;;;;;;5.88;3.80;;;7.80;94.10;;;;;;5048897;28;20075;-75
2023/01/27 12:30:35;;;;;;;6.10;3.58;;;7.80;94.10;;;;;;5050538;28;20423;-75
2023/01/27 12:33:11;;;;;;;6.43;4.45;;;7.80;93.00;;;;;;5046856;28;20437;-73
2023/01/27 12:35:38;;;;;;;6.05;4.07;;;7.90;92.60;;;;;;5067289;28;20025;-75
2023/01/27 12:38:19;;;;;;;5.03;3.38;;;8.00;93.20;;;;;;5049930;28;20128;-74
2023/01/27 12:40:46;;;;;;;7.07;4.60;;;8.00;92.70;;;;;;5048171;28;20090;-75
2023/01/27 12:43:19;;;;;;;5.75;3.45;;;8.00;92.50;;;;;;5049540;28;20013;-75
2023/01/27 12:46:21;;;;;;;6.32;2.90;;;8.00;94.00;;;;;;5049844;28;20489;-76
2023/01/27 12:48:50;;;;;;;6.78;4.60;;;8.00;94.40;;;;;;5047113;28;20031;-76
2023/01/27 12:51:22;;;;;;;6.28;3.90;;;7.90;93.60;;;;;;5031627;28;20071;-74
2023/01/27 12:53:50;;;;;;;6.60;2.80;;;8.00;93.10;;;;;;5049537;28;20017;-75
2023/01/27 12:56:17;;;;;;;6.18;3.65;;;8.00;94.10;;;;;;5049026;28;20025;-76
2023/01/27 12:58:56;;;;;;;7.22;2.83;;;8.00;93.80;;;;;;5049677;28;20256;-76
2023/01/27 13:01:29;;;;;;;6.40;3.70;;;8.00;94.80;;;;;;5049662;28;20025;-75
2023/01/27 13:03:57;;;;;;;5.25;3.08;;;7.90;94.90;;;;;;5045464;28;20085;-75
2023/01/27 13:06:32;;;;;;;6.55;3.42;;;7.80;95.00;;;;;;5048452;28;20025;-74
2023/01/27 13:09:00;;;;;;;5.97;4.15;;;7.70;95.40;;;;;;5052085;28;20086;-74
2023/01/27 13:11:37;;;;;;;6.80;4.00;;;7.70;95.30;;;;;;5059160;28;20126;-76
2023/01/27 13:14:07;;;;;;;6.75;4.15;;;7.80;95.80;;;;;;5049581;28;20060;-76
2023/01/27 13:16:33;;;;;;;6.90;3.70;;;7.80;95.50;;;;;;5045981;28;20017;-75
2023/01/27 13:19:01;;;;;;;5.53;3.33;;;7.70;95.40;;;;;;5048149;28;20036;-74
2023/01/27 13:21:34;;;;;;;5.72;2.53;;;7.70;96.20;;;;;;5049770;28;20032;-76
2023/01/27 13:24:04;;;;;;;5.47;3.58;;;7.70;96.40;;;;;;5047639;28;20021;-75
2023/01/27 13:26:33;;;;;;;8.52;4.75;;;7.70;96.10;;;;;;5028338;28;20045;-75
2023/01/27 13:29:08;;;;;;;7.03;3.65;;;7.70;95.60;;;;;;5043729;28;20078;-73
2023/01/27 13:31:55;;;;;;;6.60;4.43;;;7.70;94.70;;;;;;5049254;28;20106;-75
2023/01/27 13:34:32;;;;;;;9.15;4.43;;;7.70;95.30;;;;;;5059520;28;20025;-75
2023/01/27 13:37:29;;;;;;;5.43;3.42;;;7.60;92.90;;;;;;5034386;28;20026;-74